Time;durP1;ratioP1;P1;durP2;ratioP2;P2;SDS_P1;SDS_P2;PMS_P1;PMS_P2;Temp;Humidity;BMP_temperature;BMP_pressure;BME280_temperature;BME280_humidity;BME280_pressure;Samples;Min_cycle;Max_cycle;Signal;HPM_P1;HPM_P2
2021/12/27 00:01:55;;;;;;;16.55;11.40;;;1.40;99.90;;;;;;5075420;28;20126;-78
2021/12/27 00:04:22;;;;;;;16.45;10.70;;;1.40;99.90;;;;;;5093677;28;20127;-79
2021/12/27 00:06:49;;;;;;;15.05;9.88;;;1.40;99.90;;;;;;5093586;28;20059;-79
2021/12/27 00:09:16;;;;;;;15.18;9.85;;;1.50;99.90;;;;;;5075624;28;20563;-79
2021/12/27 00:11:43;;;;;;;13.10;9.02;;;1.40;99.90;;;;;;5093414;28;20052;-78
2021/12/27 00:14:10;;;;;;;28.45;17.02;;;1.40;99.90;;;;;;5075812;28;20044;-79
2021/12/27 00:16:37;;;;;;;12.25;8.52;;;1.40;99.90;;;;;;5093545;28;20048;-79
2021/12/27 00:19:03;;;;;;;14.00;9.45;;;1.50;99.90;;;;;;5075905;28;20048;-79
2021/12/27 00:21:30;;;;;;;13.23;9.93;;;1.40;99.90;;;;;;5094290;28;20052;-79
2021/12/27 00:23:57;;;;;;;15.98;9.85;;;1.50;99.90;;;;;;5076063;28;20120;-79
2021/12/27 00:26:24;;;;;;;17.73;12.32;;;1.40;99.90;;;;;;5081224;28;20491;-80
2021/12/27 00:28:51;;;;;;;14.75;9.93;;;1.40;99.90;;;;;;5101478;28;20087;-80
2021/12/27 00:31:18;;;;;;;17.40;10.80;;;1.50;99.90;;;;;;5082737;28;20072;-80
2021/12/27 00:33:44;;;;;;;14.23;9.85;;;1.40;99.90;;;;;;5100642;28;20044;-80
2021/12/27 00:36:11;;;;;;;16.00;10.20;;;1.40;99.90;;;;;;5085165;28;20460;-80
2021/12/27 00:38:38;;;;;;;13.98;10.05;;;1.40;99.90;;;;;;5099661;28;20103;-79
2021/12/27 00:41:05;;;;;;;15.30;9.98;;;1.50;99.90;;;;;;5098886;28;20465;-80
2021/12/27 00:43:32;;;;;;;13.45;9.63;;;1.50;99.90;;;;;;5098893;28;20052;-80
2021/12/27 00:45:58;;;;;;;14.88;9.82;;;1.40;99.90;;;;;;5079633;28;20048;-80
2021/12/27 00:48:25;;;;;;;14.90;9.65;;;1.40;99.90;;;;;;5098109;28;20070;-80
2021/12/27 00:50:52;;;;;;;17.92;10.35;;;1.40;99.90;;;;;;5079890;28;20079;-80
2021/12/27 00:53:19;;;;;;;14.95;9.80;;;1.30;99.90;;;;;;5097504;28;20055;-80
2021/12/27 00:55:45;;;;;;;14.27;10.10;;;1.30;99.90;;;;;;5079042;28;20131;-80
2021/12/27 00:58:12;;;;;;;13.70;10.18;;;1.40;99.90;;;;;;5097447;28;20052;-80
2021/12/27 01:00:39;;;;;;;13.27;9.25;;;1.60;99.90;;;;;;5077988;28;20492;-80
2021/12/27 01:03:09;;;;;;;13.55;9.25;;;1.60;99.90;;;;;;5097573;28;20048;-80
2021/12/27 01:05:39;;;;;;;13.77;9.37;;;1.50;99.90;;;;;;5079920;28;20048;-81
2021/12/27 01:08:06;;;;;;;10.75;8.35;;;1.50;99.90;;;;;;5080168;28;20135;-81
2021/12/27 01:10:57;;;;;;;12.27;8.80;;;1.40;99.90;;;;;;5099184;28;20063;-81
2021/12/27 01:13:36;;;;;;;11.82;8.48;;;1.50;99.90;;;;;;5098434;28;20112;-81
2021/12/27 01:18:34;;;;;;;15.15;9.45;;;1.50;99.90;;;;;;5095778;28;20048;-80
2021/12/27 01:21:02;;;;;;;13.55;8.90;;;1.60;99.90;;;;;;5095700;28;20102;-81
2021/12/27 01:23:28;;;;;;;14.13;9.68;;;1.40;99.90;;;;;;5095804;28;20511;-80
2021/12/27 01:25:55;;;;;;;14.57;9.65;;;1.40;99.90;;;;;;5095846;28;20048;-81
2021/12/27 01:28:22;;;;;;;11.70;8.50;;;1.50;99.90;;;;;;5096086;28;20048;-81
2021/12/27 01:30:49;;;;;;;14.20;9.13;;;1.50;99.90;;;;;;5077691;28;20050;-80
2021/12/27 01:33:19;;;;;;;12.80;9.02;;;1.50;99.90;;;;;;5078072;28;20052;-82
2021/12/27 01:35:47;;;;;;;13.73;10.40;;;1.50;99.90;;;;;;5095732;28;20062;-80
2021/12/27 01:38:14;;;;;;;16.52;10.10;;;1.40;99.90;;;;;;5095747;28;20048;-81
2021/12/27 01:40:44;;;;;;;12.55;9.27;;;1.30;99.90;;;;;;5095630;28;20425;-80
2021/12/27 01:43:29;;;;;;;13.13;9.02;;;1.40;99.90;;;;;;5078254;28;20046;-80
2021/12/27 01:46:00;;;;;;;13.98;9.32;;;1.40;99.90;;;;;;5095566;28;20151;-81
2021/12/27 01:48:32;;;;;;;15.55;9.93;;;1.30;99.90;;;;;;5095807;28;20048;-81
2021/12/27 01:51:01;;;;;;;17.27;10.57;;;1.30;99.90;;;;;;5095577;28;20135;-81
2021/12/27 01:53:30;;;;;;;17.98;10.65;;;1.30;99.90;;;;;;5095640;28;20056;-80
2021/12/27 01:55:57;;;;;;;17.15;11.63;;;1.30;99.90;;;;;;5095030;28;20052;-80
2021/12/27 01:58:25;;;;;;;18.67;10.93;;;1.30;99.90;;;;;;5077473;28;20131;-80
2021/12/27 02:00:57;;;;;;;20.38;11.50;;;1.30;99.90;;;;;;5101120;28;20040;-81
2021/12/27 02:03:27;;;;;;;17.25;11.55;;;1.20;99.90;;;;;;5104514;28;20047;-82
2021/12/27 02:05:55;;;;;;;19.75;11.15;;;1.20;99.90;;;;;;5102675;28;20154;-81
2021/12/27 02:08:22;;;;;;;19.33;11.57;;;1.10;99.90;;;;;;5106509;28;20076;-81
2021/12/27 02:10:50;;;;;;;17.90;12.35;;;1.20;99.90;;;;;;5085890;28;20082;-81
2021/12/27 02:13:17;;;;;;;17.92;11.48;;;1.10;99.90;;;;;;5102354;28;20075;-81
2021/12/27 02:15:45;;;;;;;19.23;11.23;;;1.20;99.90;;;;;;5102328;28;20051;-81
2021/12/27 02:18:12;;;;;;;18.15;11.30;;;1.30;99.90;;;;;;5101117;28;20087;-82
2021/12/27 02:20:41;;;;;;;17.15;11.77;;;1.40;99.90;;;;;;5082209;28;20123;-81
2021/12/27 02:23:15;;;;;;;15.23;11.00;;;1.50;99.90;;;;;;5101644;28;20580;-81
2021/12/27 02:25:48;;;;;;;13.57;9.70;;;1.70;99.90;;;;;;5100456;28;20397;-81
2021/12/27 02:28:16;;;;;;;11.15;9.05;;;1.90;99.90;;;;;;5082094;28;20123;-82
2021/12/27 02:30:45;;;;;;;14.05;8.50;;;2.00;99.90;;;;;;5081615;28;20135;-82
2021/12/27 02:33:12;;;;;;;12.05;8.50;;;2.00;99.90;;;;;;5099807;28;20139;-81
2021/12/27 02:35:42;;;;;;;13.05;8.98;;;2.10;99.90;;;;;;5100365;28;20515;-81
2021/12/27 02:38:19;;;;;;;13.90;8.55;;;2.20;99.90;;;;;;5081166;28;20449;-81
2021/12/27 02:40:47;;;;;;;12.43;8.27;;;2.20;99.90;;;;;;5079640;28;20131;-80
2021/12/27 02:43:26;;;;;;;11.05;8.18;;;2.20;99.90;;;;;;5097832;28;20135;-81
2021/12/27 02:45:59;;;;;;;11.70;8.60;;;2.20;99.90;;;;;;5096847;28;20483;-81
2021/12/27 02:48:33;;;;;;;9.80;7.55;;;2.30;99.90;;;;;;5078282;28;20075;-81
2021/12/27 02:51:00;;;;;;;12.20;8.00;;;2.30;99.90;;;;;;5096766;28;20087;-81
2021/12/27 02:53:30;;;;;;;10.30;7.63;;;2.30;99.90;;;;;;5077836;28;20137;-80
2021/12/27 02:55:59;;;;;;;9.45;7.90;;;2.30;99.90;;;;;;5077440;28;20134;-82
2021/12/27 02:58:27;;;;;;;10.18;7.93;;;2.30;99.90;;;;;;5095697;28;20044;-80
2021/12/27 03:01:01;;;;;;;11.75;7.78;;;2.30;99.90;;;;;;5093702;28;20056;-82
2021/12/27 03:03:28;;;;;;;12.05;7.93;;;2.30;99.90;;;;;;5093798;28;20080;-81
2021/12/27 03:05:55;;;;;;;11.65;7.38;;;2.30;99.90;;;;;;5075691;28;20127;-81
2021/12/27 03:08:23;;;;;;;9.73;7.70;;;2.30;99.90;;;;;;5075734;28;20074;-81
2021/12/27 03:10:52;;;;;;;8.63;7.50;;;2.30;99.90;;;;;;5075763;28;20084;-82
2021/12/27 03:13:26;;;;;;;11.15;7.90;;;2.30;99.90;;;;;;5075900;28;20079;-81
2021/12/27 03:15:56;;;;;;;9.45;7.55;;;2.30;99.90;;;;;;5093738;28;20084;-82
2021/12/27 03:18:24;;;;;;;8.50;7.10;;;2.20;99.90;;;;;;5093751;28;20134;-82
2021/12/27 03:20:52;;;;;;;8.43;6.50;;;2.20;99.90;;;;;;5075545;28;20131;-83
2021/12/27 03:23:19;;;;;;;7.88;6.63;;;2.30;99.90;;;;;;5075609;28;20135;-83
2021/12/27 03:25:46;;;;;;;8.18;5.80;;;2.30;99.90;;;;;;5075682;28;20122;-82
2021/12/27 03:28:14;;;;;;;7.50;6.70;;;2.30;99.90;;;;;;5075595;28;20135;-83
2021/12/27 03:30:41;;;;;;;9.35;6.63;;;2.30;99.90;;;;;;5092554;28;20134;-82
2021/12/27 03:33:09;;;;;;;7.75;5.95;;;2.30;99.90;;;;;;5093658;28;20514;-83
2021/12/27 03:35:39;;;;;;;7.32;5.93;;;2.30;99.90;;;;;;5099163;28;20082;-83
2021/12/27 03:38:11;;;;;;;7.13;5.95;;;2.30;99.90;;;;;;5085336;28;20129;-83
2021/12/27 03:40:41;;;;;;;8.18;6.38;;;2.30;99.90;;;;;;5084070;28;20453;-84
2021/12/27 03:43:08;;;;;;;6.50;5.72;;;2.30;99.90;;;;;;5100909;28;20071;-84
2021/12/27 03:45:37;;;;;;;7.97;6.38;;;2.30;99.90;;;;;;5084995;22;20545;-81
2021/12/27 03:48:08;;;;;;;7.32;5.97;;;2.30;99.90;;;;;;5073396;28;20143;-80
2021/12/27 03:50:35;;;;;;;6.95;5.55;;;2.30;99.90;;;;;;5072964;28;20087;-81
2021/12/27 03:53:03;;;;;;;6.53;5.85;;;2.20;99.90;;;;;;5074167;28;20135;-81
2021/12/27 03:55:31;;;;;;;5.95;5.00;;;2.30;99.90;;;;;;5073369;28;20501;-81
2021/12/27 03:58:08;;;;;;;6.95;5.03;;;2.20;99.90;;;;;;5073031;28;20058;-81
2021/12/27 04:01:00;;;;;;;7.72;5.57;;;2.30;99.90;;;;;;5073017;28;20075;-81
2021/12/27 04:03:28;;;;;;;8.80;5.97;;;2.30;99.90;;;;;;5073333;28;20079;-81
2021/12/27 04:05:56;;;;;;;8.23;5.93;;;2.20;99.90;;;;;;5072955;28;20095;-81
2021/12/27 04:08:24;;;;;;;6.97;5.78;;;2.20;99.90;;;;;;5073247;28;20413;-81
2021/12/27 04:10:51;;;;;;;6.57;5.22;;;2.20;99.90;;;;;;5074187;28;20087;-81
2021/12/27 04:13:21;;;;;;;8.38;5.32;;;2.30;99.90;;;;;;5073346;28;20056;-81
2021/12/27 04:15:50;;;;;;;5.10;4.60;;;2.30;99.90;;;;;;5073177;28;20060;-81
2021/12/27 04:18:18;;;;;;;5.82;5.22;;;2.30;99.90;;;;;;5073102;28;20049;-82
2021/12/27 04:20:45;;;;;;;5.30;4.80;;;2.30;99.90;;;;;;5072656;28;20076;-82
2021/12/27 04:23:13;;;;;;;5.47;4.93;;;2.40;99.90;;;;;;5072666;28;20076;-81
2021/12/27 04:25:41;;;;;;;4.72;4.22;;;2.40;99.90;;;;;;5074291;28;20044;-81
2021/12/27 04:28:08;;;;;;;4.43;4.03;;;2.40;99.90;;;;;;5072299;28;20485;-81
2021/12/27 04:30:39;;;;;;;4.00;3.70;;;2.30;99.90;;;;;;5072560;28;20505;-82
2021/12/27 04:33:05;;;;;;;4.75;4.15;;;2.30;99.90;;;;;;5073329;28;20072;-81
2021/12/27 04:35:32;;;;;;;4.53;4.13;;;2.30;99.90;;;;;;5072772;28;20099;-81
2021/12/27 04:38:00;;;;;;;4.43;4.03;;;2.30;99.90;;;;;;5073366;28;20574;-79
2021/12/27 04:40:29;;;;;;;4.68;4.28;;;2.30;99.90;;;;;;5072753;28;20144;-81
2021/12/27 04:43:13;;;;;;;4.75;4.35;;;2.30;99.90;;;;;;5076509;28;20103;-81
2021/12/27 04:45:43;;;;;;;4.78;4.30;;;2.30;99.90;;;;;;5077866;28;20518;-81
2021/12/27 04:48:10;;;;;;;4.40;4.00;;;2.30;99.90;;;;;;5076538;28;20136;-82
2021/12/27 04:50:37;;;;;;;4.65;4.25;;;2.30;99.90;;;;;;5076369;28;20138;-82
2021/12/27 04:53:08;;;;;;;4.30;3.90;;;2.40;99.90;;;;;;5075968;28;20598;-81
2021/12/27 04:55:36;;;;;;;4.15;3.75;;;2.40;99.90;;;;;;5076340;28;20464;-80
2021/12/27 04:58:04;;;;;;;3.95;3.45;;;2.50;99.90;;;;;;5076549;28;20131;-81
2021/12/27 05:00:32;;;;;;;3.58;3.30;;;2.50;99.90;;;;;;5075553;28;20087;-81
2021/12/27 05:02:59;;;;;;;6.65;3.90;;;2.50;99.90;;;;;;5077034;28;20044;-81
2021/12/27 05:05:27;;;;;;;3.40;3.10;;;2.50;99.90;;;;;;5075905;28;20464;-81
2021/12/27 05:07:54;;;;;;;4.50;4.10;;;2.50;99.90;;;;;;5075738;28;20133;-81
2021/12/27 05:10:21;;;;;;;3.70;3.40;;;2.50;99.90;;;;;;5075492;28;20131;-81
2021/12/27 05:12:48;;;;;;;4.18;3.88;;;2.50;99.90;;;;;;5075700;28;20048;-81
2021/12/27 05:15:15;;;;;;;4.53;3.95;;;2.40;99.90;;;;;;5075572;28;20533;-81
2021/12/27 05:17:42;;;;;;;4.32;3.92;;;2.40;99.90;;;;;;5075695;28;20490;-80
2021/12/27 05:20:09;;;;;;;5.85;4.43;;;2.40;99.90;;;;;;5075582;28;20100;-81
2021/12/27 05:22:38;;;;;;;6.35;5.07;;;2.40;99.90;;;;;;5076059;28;20131;-81
2021/12/27 05:25:06;;;;;;;4.70;4.18;;;2.30;99.90;;;;;;5075781;28;20127;-81
2021/12/27 05:27:33;;;;;;;5.25;3.85;;;2.40;99.90;;;;;;5076869;28;20437;-81
2021/12/27 05:30:15;;;;;;;4.07;3.55;;;2.40;99.90;;;;;;5077077;28;20170;-81
2021/12/27 05:32:43;;;;;;;3.85;3.50;;;2.50;99.90;;;;;;5077138;28;20044;-80
2021/12/27 05:35:11;;;;;;;5.25;4.30;;;2.60;99.90;;;;;;5075409;28;20507;-81
2021/12/27 05:37:39;;;;;;;7.22;6.57;;;2.60;99.90;;;;;;5075274;28;20048;-81
2021/12/27 05:40:09;;;;;;;3.92;3.63;;;2.60;99.90;;;;;;5076708;28;20059;-80
2021/12/27 05:42:37;;;;;;;5.35;4.20;;;2.60;99.90;;;;;;5075613;28;20091;-81
2021/12/27 05:45:06;;;;;;;5.88;5.38;;;2.70;99.90;;;;;;5075646;28;20140;-81
2021/12/27 05:47:33;;;;;;;4.20;3.90;;;2.70;99.90;;;;;;5075618;28;20153;-80
2021/12/27 05:50:03;;;;;;;6.07;5.13;;;2.70;99.90;;;;;;5076278;28;20127;-81
2021/12/27 05:52:29;;;;;;;10.68;7.43;;;2.60;99.90;;;;;;5074115;28;20469;-80
2021/12/27 05:54:57;;;;;;;8.95;8.05;;;2.70;99.90;;;;;;5075215;28;20109;-80
2021/12/27 05:57:24;;;;;;;6.47;5.03;;;2.60;99.90;;;;;;5075161;28;20052;-80
2021/12/27 05:59:51;;;;;;;5.07;4.57;;;2.60;99.90;;;;;;5076783;28;20136;-80
2021/12/27 06:02:18;;;;;;;6.35;5.75;;;2.60;99.90;;;;;;5074551;28;20080;-80
2021/12/27 06:04:44;;;;;;;5.75;5.20;;;2.60;99.90;;;;;;5075549;28;20040;-80
2021/12/27 06:07:11;;;;;;;7.22;6.47;;;2.60;99.90;;;;;;5074818;28;20573;-80
2021/12/27 06:09:38;;;;;;;6.10;4.50;;;2.60;99.90;;;;;;5074693;28;20080;-80
2021/12/27 06:12:05;;;;;;;6.28;5.68;;;2.50;99.90;;;;;;5074872;28;20139;-80
2021/12/27 06:14:32;;;;;;;5.47;4.97;;;2.40;99.90;;;;;;5074932;28;20139;-80
2021/12/27 06:16:59;;;;;;;7.55;6.55;;;2.50;99.90;;;;;;5075846;28;20059;-80
2021/12/27 06:19:26;;;;;;;6.38;5.55;;;2.40;99.90;;;;;;5074588;28;20048;-80
2021/12/27 06:21:54;;;;;;;5.45;4.50;;;2.50;99.90;;;;;;5075900;28;20045;-80
2021/12/27 06:24:20;;;;;;;5.63;4.93;;;2.50;99.90;;;;;;5074961;28;20123;-81
2021/12/27 06:26:47;;;;;;;5.60;4.40;;;2.50;99.90;;;;;;5074442;28;20136;-81
2021/12/27 06:29:14;;;;;;;5.35;4.85;;;2.50;99.90;;;;;;5074462;28;20405;-81
2021/12/27 06:31:41;;;;;;;5.82;4.68;;;2.50;99.90;;;;;;5074434;28;20056;-81
2021/12/27 06:34:09;;;;;;;5.00;4.50;;;2.50;99.90;;;;;;5074671;28;20143;-81
2021/12/27 06:36:36;;;;;;;4.95;4.45;;;2.50;99.90;;;;;;5074575;28;20517;-80
2021/12/27 06:39:04;;;;;;;5.03;4.53;;;2.60;99.90;;;;;;5075555;28;20080;-80
2021/12/27 06:41:32;;;;;;;5.03;4.20;;;2.60;99.90;;;;;;5074000;28;20048;-81
2021/12/27 06:43:58;;;;;;;4.70;4.30;;;2.60;99.90;;;;;;5073852;28;20076;-80
2021/12/27 06:46:26;;;;;;;4.20;3.80;;;2.60;99.90;;;;;;5074644;28;20079;-81
2021/12/27 06:48:53;;;;;;;4.70;4.20;;;2.60;99.90;;;;;;5074044;28;20123;-80
2021/12/27 06:51:20;;;;;;;5.50;4.70;;;2.60;99.90;;;;;;5073531;28;20056;-80
2021/12/27 06:53:46;;;;;;;8.52;5.07;;;2.60;99.90;;;;;;5074052;28;20444;-81
2021/12/27 06:56:13;;;;;;;5.03;4.30;;;2.60;99.90;;;;;;5075239;28;20133;-81
2021/12/27 06:58:40;;;;;;;5.03;4.40;;;2.60;99.90;;;;;;5073985;28;20089;-81
2021/12/27 07:01:08;;;;;;;4.28;3.88;;;2.60;99.90;;;;;;5073611;28;20048;-80
2021/12/27 07:03:36;;;;;;;7.45;4.88;;;2.60;99.90;;;;;;5073720;28;20154;-80
2021/12/27 07:06:03;;;;;;;5.28;4.65;;;2.60;99.90;;;;;;5073661;28;20573;-81
2021/12/27 07:08:29;;;;;;;6.93;6.18;;;2.50;99.90;;;;;;5074556;28;20067;-80
2021/12/27 07:10:56;;;;;;;5.50;4.78;;;2.50;99.90;;;;;;5072835;28;20052;-80
2021/12/27 07:13:23;;;;;;;4.70;4.22;;;2.50;99.90;;;;;;5074791;28;20056;-80
2021/12/27 07:15:49;;;;;;;4.78;4.35;;;2.50;99.90;;;;;;5073274;28;20135;-80
2021/12/27 07:18:22;;;;;;;3.80;3.50;;;2.60;99.90;;;;;;5073527;28;20131;-80
2021/12/27 07:20:53;;;;;;;4.10;3.70;;;2.70;99.90;;;;;;5073959;28;20083;-80
2021/12/27 07:23:19;;;;;;;4.55;3.67;;;2.70;99.90;;;;;;5073020;28;20558;-80
2021/12/27 07:25:46;;;;;;;3.83;3.53;;;2.80;99.90;;;;;;5073151;28;20446;-80
2021/12/27 07:28:13;;;;;;;3.92;3.63;;;2.70;99.90;;;;;;5078151;28;20076;-79
2021/12/27 07:30:40;;;;;;;4.22;3.67;;;2.80;99.90;;;;;;5079624;28;20075;-80
2021/12/27 07:33:08;;;;;;;9.60;7.30;;;2.80;99.90;;;;;;5072952;28;20123;-80
2021/12/27 07:35:35;;;;;;;4.70;3.55;;;2.70;99.90;;;;;;5073818;28;20528;-80
2021/12/27 07:38:02;;;;;;;3.60;3.30;;;2.70;99.90;;;;;;5072951;28;20049;-80
2021/12/27 07:40:30;;;;;;;3.90;3.60;;;2.70;99.90;;;;;;5074046;28;20048;-80
2021/12/27 07:42:58;;;;;;;4.18;3.78;;;2.70;99.90;;;;;;5072517;28;20044;-79
2021/12/27 07:45:26;;;;;;;3.80;3.50;;;2.70;99.90;;;;;;5072790;28;20470;-80
2021/12/27 07:47:53;;;;;;;3.40;3.10;;;2.70;99.90;;;;;;5073694;28;20052;-80
2021/12/27 07:50:21;;;;;;;3.75;3.47;;;2.70;99.90;;;;;;5072995;28;20474;-79
2021/12/27 07:52:50;;;;;;;4.05;3.65;;;2.70;99.90;;;;;;5072897;28;20140;-79
2021/12/27 07:55:17;;;;;;;3.53;3.28;;;2.80;99.90;;;;;;5072522;28;20082;-79
2021/12/27 07:57:43;;;;;;;3.28;3.00;;;2.80;99.90;;;;;;5072989;28;20105;-81
2021/12/27 08:00:11;;;;;;;3.50;3.20;;;2.80;99.90;;;;;;5073399;28;20560;-79
2021/12/27 08:02:38;;;;;;;3.88;3.20;;;2.80;99.90;;;;;;5073855;28;20094;-79
2021/12/27 08:05:06;;;;;;;3.05;2.83;;;2.90;99.90;;;;;;5072419;28;20432;-80
2021/12/27 08:07:32;;;;;;;3.78;3.47;;;2.90;99.90;;;;;;5073930;28;20049;-79
2021/12/27 08:09:59;;;;;;;3.90;3.60;;;2.90;99.90;;;;;;5072788;28;20078;-80
2021/12/27 08:12:26;;;;;;;3.38;3.17;;;2.90;99.90;;;;;;5073630;28;20056;-78
2021/12/27 08:14:56;;;;;;;3.25;2.88;;;2.80;99.90;;;;;;5073836;28;20048;-80
2021/12/27 08:17:23;;;;;;;3.60;3.30;;;2.90;99.90;;;;;;5077177;28;20144;-80
2021/12/27 08:19:53;;;;;;;7.32;4.53;;;2.90;99.90;;;;;;5077916;28;20048;-80
2021/12/27 08:22:19;;;;;;;8.52;5.72;;;2.90;99.90;;;;;;5077758;28;20127;-80
2021/12/27 08:24:49;;;;;;;3.45;3.15;;;2.90;99.90;;;;;;5077060;28;20048;-80
2021/12/27 08:27:17;;;;;;;3.63;3.22;;;3.00;99.90;;;;;;5079523;28;20044;-80
2021/12/27 08:29:44;;;;;;;3.70;3.20;;;3.00;99.90;;;;;;5078455;28;20045;-80
2021/12/27 08:32:11;;;;;;;3.15;2.65;;;3.00;99.90;;;;;;5078296;28;20052;-80
2021/12/27 08:34:38;;;;;;;2.90;2.70;;;3.10;99.90;;;;;;5080007;28;20466;-80
2021/12/27 08:37:05;;;;;;;3.78;3.35;;;3.10;99.90;;;;;;5079283;28;20135;-80
2021/12/27 08:39:34;;;;;;;3.22;3.03;;;3.10;99.90;;;;;;5078054;28;20075;-80
2021/12/27 08:42:07;;;;;;;3.20;2.40;;;3.20;99.90;;;;;;5078468;28;20136;-81
2021/12/27 08:44:35;;;;;;;3.20;3.00;;;3.20;99.90;;;;;;5077816;28;20136;-80
2021/12/27 08:47:02;;;;;;;5.18;3.40;;;3.30;99.90;;;;;;5077233;28;20143;-78
2021/12/27 08:49:29;;;;;;;3.28;3.08;;;3.30;99.90;;;;;;5078365;28;20482;-80
2021/12/27 08:51:56;;;;;;;9.75;3.90;;;3.30;99.90;;;;;;5078713;28;20139;-80
2021/12/27 08:54:22;;;;;;;3.80;3.50;;;3.30;99.90;;;;;;5077219;28;20139;-79
2021/12/27 08:56:49;;;;;;;4.75;3.45;;;3.40;99.90;;;;;;5077298;28;20087;-81
2021/12/27 08:59:16;;;;;;;3.30;3.10;;;3.50;99.90;;;;;;5077992;28;20052;-80
2021/12/27 09:01:43;;;;;;;4.97;4.55;;;3.60;99.90;;;;;;5078042;28;20045;-81
2021/12/27 09:04:10;;;;;;;3.70;3.20;;;3.70;99.90;;;;;;5078592;28;20076;-80
2021/12/27 09:06:36;;;;;;;3.17;2.95;;;3.80;99.90;;;;;;5077689;28;20058;-81
2021/12/27 09:09:05;;;;;;;3.33;2.90;;;3.80;99.90;;;;;;5078236;28;20132;-81
2021/12/27 09:11:32;;;;;;;6.22;3.47;;;3.90;99.90;;;;;;5079423;28;20127;-81
2021/12/27 09:13:59;;;;;;;4.30;3.05;;;3.90;99.90;;;;;;5077382;28;20151;-81
2021/12/27 09:16:43;;;;;;;2.38;2.17;;;3.80;99.90;;;;;;5077533;28;20090;-81
2021/12/27 09:19:11;;;;;;;3.95;2.72;;;3.80;99.90;;;;;;5079386;28;20052;-81
2021/12/27 09:21:38;;;;;;;3.72;3.40;;;3.80;99.90;;;;;;5077760;28;20087;-81
2021/12/27 09:24:05;;;;;;;6.97;5.30;;;3.90;99.90;;;;;;5077768;28;20123;-82
2021/12/27 09:26:33;;;;;;;4.88;3.78;;;3.90;99.90;;;;;;5078050;28;20051;-82
2021/12/27 09:28:59;;;;;;;2.95;2.75;;;4.00;99.90;;;;;;5077896;28;20087;-82
2021/12/27 09:31:26;;;;;;;2.47;2.28;;;4.00;99.90;;;;;;5077125;28;20079;-81
2021/12/27 09:33:53;;;;;;;2.67;2.47;;;4.00;99.90;;;;;;5077594;28;20078;-81
2021/12/27 09:36:21;;;;;;;2.88;2.67;;;3.90;99.90;;;;;;5079635;28;20041;-81
2021/12/27 09:38:48;;;;;;;2.88;2.60;;;3.90;99.90;;;;;;5078891;28;20555;-81
2021/12/27 09:41:20;;;;;;;3.00;2.70;;;3.80;99.90;;;;;;5078755;28;20132;-81
2021/12/27 09:43:47;;;;;;;4.47;2.92;;;3.80;99.90;;;;;;5077303;28;20055;-80
2021/12/27 09:46:13;;;;;;;3.00;2.70;;;3.80;99.90;;;;;;5079487;28;20143;-81
2021/12/27 09:48:40;;;;;;;5.10;2.67;;;3.90;99.90;;;;;;5079598;28;20054;-81
2021/12/27 09:51:08;;;;;;;2.90;2.53;;;3.90;99.90;;;;;;5077621;28;20138;-82
2021/12/27 09:53:35;;;;;;;3.55;3.13;;;3.90;99.90;;;;;;5077401;28;20055;-82
2021/12/27 09:56:11;;;;;;;4.22;3.08;;;3.90;99.90;;;;;;5078173;28;20051;-81
2021/12/27 09:58:39;;;;;;;3.45;3.15;;;4.00;99.90;;;;;;5077891;28;20094;-81
2021/12/27 10:01:06;;;;;;;3.53;3.20;;;4.00;99.90;;;;;;5080023;28;20053;-81
2021/12/27 10:03:54;;;;;;;3.40;3.10;;;4.00;99.90;;;;;;5080350;28;20104;-81
2021/12/27 10:06:23;;;;;;;4.57;3.35;;;4.00;99.90;;;;;;5081950;28;20044;-82
2021/12/27 10:08:59;;;;;;;5.53;3.25;;;4.00;99.90;;;;;;5081061;28;20047;-82
2021/12/27 10:11:37;;;;;;;5.30;4.32;;;4.10;99.90;;;;;;5082134;28;20108;-82
2021/12/27 10:14:08;;;;;;;5.10;4.10;;;4.10;99.90;;;;;;5083032;28;20058;-82
2021/12/27 10:16:49;;;;;;;3.58;3.28;;;4.20;99.90;;;;;;5080856;28;20577;-81
2021/12/27 10:19:18;;;;;;;4.32;3.70;;;4.20;99.90;;;;;;5079252;28;20104;-82
2021/12/27 10:21:49;;;;;;;4.85;3.80;;;4.20;99.90;;;;;;5078823;28;20490;-82
2021/12/27 10:24:21;;;;;;;5.45;3.90;;;4.30;99.90;;;;;;5078316;28;20048;-81
2021/12/27 10:26:49;;;;;;;4.57;3.83;;;4.30;99.90;;;;;;5076808;28;20075;-81
2021/12/27 10:29:23;;;;;;;4.35;3.90;;;4.30;99.90;;;;;;5076036;28;20135;-79
2021/12/27 10:31:57;;;;;;;4.57;4.00;;;4.30;99.90;;;;;;5075585;28;20134;-79
2021/12/27 10:34:30;;;;;;;6.05;4.45;;;4.30;99.90;;;;;;5075950;28;20045;-79
2021/12/27 10:37:04;;;;;;;4.93;4.30;;;4.30;99.90;;;;;;5075742;28;20131;-79
2021/12/27 10:40:22;;;;;;;5.47;4.68;;;4.30;99.90;;;;;;5075312;28;20493;-82
2021/12/27 10:42:50;;;;;;;8.20;4.55;;;4.30;99.90;;;;;;5015356;28;20109;-81
2021/12/27 10:45:22;;;;;;;5.57;4.65;;;4.40;99.90;;;;;;5015557;28;20064;-82
2021/12/27 10:48:02;;;;;;;5.35;4.68;;;4.50;99.90;;;;;;5055733;28;20143;-82
2021/12/27 10:50:33;;;;;;;5.45;4.43;;;4.60;99.90;;;;;;5078162;28;20048;-82
2021/12/27 10:53:08;;;;;;;4.97;4.15;;;4.80;99.90;;;;;;5077949;28;20493;-82
2021/12/27 10:55:46;;;;;;;6.50;4.68;;;4.90;99.90;;;;;;5076939;28;20528;-82
2021/12/27 10:58:19;;;;;;;5.25;4.75;;;5.00;99.90;;;;;;5081098;28;20054;-82
2021/12/27 11:00:49;;;;;;;5.13;4.13;;;5.00;99.90;;;;;;5081507;28;20497;-82
2021/12/27 11:03:35;;;;;;;5.95;4.65;;;5.10;99.90;;;;;;5082014;28;20053;-82
2021/12/27 11:06:07;;;;;;;4.80;4.30;;;5.10;99.90;;;;;;5091281;28;20123;-82
2021/12/27 11:08:36;;;;;;;8.23;5.28;;;5.10;99.90;;;;;;5088280;28;20123;-82
2021/12/27 11:11:04;;;;;;;7.95;5.55;;;5.10;99.90;;;;;;5091273;28;20070;-83
2021/12/27 11:13:32;;;;;;;5.10;4.40;;;5.20;99.90;;;;;;5085337;28;20052;-82
2021/12/27 11:16:00;;;;;;;5.20;4.50;;;5.20;99.90;;;;;;5081868;28;20053;-83
2021/12/27 11:18:27;;;;;;;9.20;4.90;;;5.10;99.90;;;;;;5081184;28;20044;-83
2021/12/27 11:20:57;;;;;;;4.50;4.10;;;5.20;99.90;;;;;;5081995;28;20108;-82
2021/12/27 11:23:26;;;;;;;5.32;4.45;;;5.30;99.90;;;;;;5081017;28;20067;-82
2021/12/27 11:26:04;;;;;;;5.97;4.63;;;5.30;99.90;;;;;;5082448;28;20040;-82
2021/12/27 11:28:40;;;;;;;7.97;5.05;;;5.30;99.90;;;;;;5080731;28;20048;-82
2021/12/27 11:31:12;;;;;;;5.00;4.47;;;5.20;99.90;;;;;;5080524;28;20071;-83
2021/12/27 11:34:00;;;;;;;5.28;4.78;;;5.00;99.90;;;;;;5079190;28;20059;-82
2021/12/27 11:36:29;;;;;;;5.38;4.78;;;4.80;99.90;;;;;;5080570;28;20057;-82
2021/12/27 11:38:57;;;;;;;4.93;4.35;;;4.70;99.90;;;;;;5079869;28;20167;-82
2021/12/27 11:41:24;;;;;;;7.63;4.95;;;4.80;99.90;;;;;;5079899;28;20044;-84
2021/12/27 11:43:56;;;;;;;5.65;5.05;;;4.80;99.90;;;;;;5078933;28;20098;-83
2021/12/27 11:46:29;;;;;;;6.22;4.35;;;5.00;99.90;;;;;;5079415;28;20156;-83
2021/12/27 11:48:59;;;;;;;5.18;4.68;;;5.10;99.90;;;;;;5078861;28;20044;-83
2021/12/27 11:51:36;;;;;;;4.47;4.07;;;5.30;99.90;;;;;;5077864;28;20083;-82
2021/12/27 11:54:24;;;;;;;5.05;4.43;;;5.40;99.90;;;;;;5078843;28;20048;-83
2021/12/27 11:56:51;;;;;;;4.55;4.13;;;5.40;99.90;;;;;;5079824;28;20455;-83
2021/12/27 11:59:42;;;;;;;5.20;4.70;;;5.40;99.90;;;;;;5079683;28;20086;-83
2021/12/27 12:02:14;;;;;;;5.35;4.85;;;5.40;99.90;;;;;;5078989;28;20112;-83
2021/12/27 12:04:55;;;;;;;5.35;4.85;;;5.40;99.90;;;;;;5078292;28;20106;-83
2021/12/27 12:07:34;;;;;;;5.05;4.55;;;5.40;99.90;;;;;;5078466;28;20119;-83
2021/12/27 12:10:03;;;;;;;5.10;4.28;;;5.40;99.90;;;;;;5078281;28;20048;-83
2021/12/27 12:12:31;;;;;;;4.25;3.95;;;5.40;99.90;;;;;;5078502;28;20469;-83
2021/12/27 12:15:08;;;;;;;5.28;4.30;;;5.50;99.90;;;;;;5078713;28;20382;-83
2021/12/27 12:17:40;;;;;;;5.10;4.60;;;5.50;99.90;;;;;;5079443;28;20139;-83
2021/12/27 12:20:23;;;;;;;4.13;3.83;;;5.40;99.90;;;;;;5079087;28;20075;-83
2021/12/27 12:23:06;;;;;;;5.25;4.25;;;5.50;99.90;;;;;;5078278;28;20136;-83
2021/12/27 12:25:33;;;;;;;5.40;4.88;;;5.40;99.90;;;;;;5077928;28;20045;-83
2021/12/27 12:28:11;;;;;;;4.88;4.47;;;5.20;99.90;;;;;;5078282;28;20541;-82
2021/12/27 12:30:47;;;;;;;5.65;5.15;;;5.20;99.90;;;;;;5077829;28;20063;-83
2021/12/27 12:33:24;;;;;;;6.55;5.30;;;5.20;99.90;;;;;;5078524;28;20055;-83
2021/12/27 12:35:59;;;;;;;5.60;4.60;;;5.20;99.90;;;;;;5078243;28;20087;-83
2021/12/27 12:38:31;;;;;;;5.70;5.20;;;5.20;99.90;;;;;;5103425;22;20080;-81
2021/12/27 12:41:11;;;;;;;6.85;5.40;;;5.20;99.90;;;;;;5075403;28;20488;-82
2021/12/27 12:43:49;;;;;;;5.78;5.18;;;5.10;99.90;;;;;;5075530;28;20131;-81
2021/12/27 12:46:26;;;;;;;6.43;5.45;;;5.00;99.90;;;;;;5087893;28;20492;-81
2021/12/27 12:49:10;;;;;;;5.68;5.18;;;5.00;99.90;;;;;;5062006;28;20452;-82
2021/12/27 12:51:39;;;;;;;7.38;5.95;;;4.90;99.90;;;;;;5062501;28;20123;-81
2021/12/27 12:54:23;;;;;;;5.88;5.07;;;4.90;99.90;;;;;;5088689;28;20385;-81
2021/12/27 12:57:15;;;;;;;6.28;5.07;;;4.90;99.90;;;;;;5093548;28;20517;-80
2021/12/27 12:59:53;;;;;;;5.95;5.35;;;5.00;99.90;;;;;;5066099;28;20526;-82
2021/12/27 13:02:21;;;;;;;7.80;6.30;;;5.00;99.90;;;;;;5076466;28;20051;-82
2021/12/27 13:04:56;;;;;;;6.68;5.88;;;4.80;99.90;;;;;;5096428;28;20044;-81
2021/12/27 13:07:46;;;;;;;6.90;6.20;;;4.70;99.90;;;;;;5096776;28;20467;-81
2021/12/27 13:10:19;;;;;;;7.93;6.15;;;4.60;99.90;;;;;;5078343;28;20048;-79